Thunder radar more information blitzortung!


Radar de pluja more information rain snow radar


Visita la nostra xarxa de llocs de meteo:

Template documentation
and downloads

And another site



No particular awareness of the weather is required.    There are no Weather-warnings

Pagina Historial Weather Underground text

Diari Resum Agost 10, 2017 Unitats:  Tant    Imperial   Mètric
« Previous Dia
SegĂźent Dia »
Diari Setmana Mensual Anual Personalitzada
  Maxima: Minima: Media:
Temperatura: 84.4 °F /  29.1 °C 57 °F /  13.9 °C 72.3 °F /  22.4 °C
Punt de rosada: 57.7 °F /  14.3 °C 43.2 °F /  6.2 °C 50.7 °F /  10.4 °C
Humitat: 88 % 27 % 49 %
Wind Speed: 15 mph /  24.1 km/h - 4.2 mph /  6.8 km/h
RĂ fegues de vent: 15 mph /  24.1 km/h - -
Vent:- - SSW
Pression baro: 30.2 in /  1020.9 hPa 30 in /  1015.8 hPa -
Precipitacions: 0 in /  0.0 mm    
Historical Graphs
 
 
Dades de taula per Agost 10, 2017
Temps Temperatura Punt de rosada Pression baro Vent Wind Speed RĂ fegues de vent Humitat Rainfall Rate (Hourly)
00:00 58.8 °F /  14.9 °C 54 °F /  12.2 °C 30.1 in /  1017.8 hPa WSW 1 mph /  1.6 km/h 2 mph /  3.2 km/h 84 % 0 in /  0.0 mm
00:01 61.3 °F /  16.3 °C 57.7 °F /  14.3 °C 30.1 in /  1017.8 hPa NE 1.2 mph /  1.9 km/h   88 % 0.28 in /  7.1 mm
00:06 61.3 °F /  16.3 °C 57.4 °F /  14.1 °C 30.1 in /  1017.8 hPa SW 2.3 mph /  3.7 km/h 2.3 mph /  3.7 km/h 87 % 0.28 in /  7.1 mm
00:10 58.5 °F /  14.7 °C 53.6 °F /  12.0 °C 30.1 in /  1017.8 hPa SW 1 mph /  1.6 km/h 3 mph /  4.8 km/h 84 % 0 in /  0.0 mm
00:20 58.1 °F /  14.5 °C 53.2 °F /  11.8 °C 30.1 in /  1018.8 hPa WSW 1 mph /  1.6 km/h 3 mph /  4.8 km/h 84 % 0 in /  0.0 mm
00:30 57.9 °F /  14.4 °C 52.9 °F /  11.6 °C 30.1 in /  1018.8 hPa WSW 2 mph /  3.2 km/h 3 mph /  4.8 km/h 83 % 0 in /  0.0 mm
00:40 57.7 °F /  14.3 °C 52.5 °F /  11.4 °C 30.1 in /  1017.8 hPa WSW 1 mph /  1.6 km/h 3 mph /  4.8 km/h 83 % 0 in /  0.0 mm
00:50 57.6 °F /  14.2 °C 51.8 °F /  11.0 °C 30.1 in /  1017.8 hPa WSW 2 mph /  3.2 km/h 4 mph /  6.4 km/h 81 % 0 in /  0.0 mm
01:00 57.7 °F /  14.3 °C 51.6 °F /  10.9 °C 30.1 in /  1017.8 hPa WSW 3 mph /  4.8 km/h 4 mph /  6.4 km/h 80 % 0 in /  0.0 mm
01:10 57.9 °F /  14.4 °C 51.4 °F /  10.8 °C 30 in /  1016.8 hPa WSW 3 mph /  4.8 km/h 4 mph /  6.4 km/h 79 % 0 in /  0.0 mm
01:20 57.9 °F /  14.4 °C 51.1 °F /  10.6 °C 30.1 in /  1017.8 hPa WSW 2 mph /  3.2 km/h 3 mph /  4.8 km/h 78 % 0 in /  0.0 mm
01:30 57.7 °F /  14.3 °C 50.9 °F /  10.5 °C 30.1 in /  1017.8 hPa West 1 mph /  1.6 km/h 2 mph /  3.2 km/h 78 % 0 in /  0.0 mm
01:40 57.7 °F /  14.3 °C 50.5 °F /  10.3 °C 30.1 in /  1017.8 hPa West 2 mph /  3.2 km/h 4 mph /  6.4 km/h 77 % 0 in /  0.0 mm
01:50 57.6 °F /  14.2 °C 50.4 °F /  10.2 °C 30.1 in /  1017.8 hPa West 2 mph /  3.2 km/h 2 mph /  3.2 km/h 77 % 0 in /  0.0 mm
02:00 57.4 °F /  14.1 °C 49.8 °F /  9.9 °C 30.1 in /  1017.8 hPa WNW 1 mph /  1.6 km/h 2 mph /  3.2 km/h 76 % 0 in /  0.0 mm
02:10 57.2 °F /  14.0 °C 49.6 °F /  9.8 °C 30 in /  1016.8 hPa WNW 2 mph /  3.2 km/h 3 mph /  4.8 km/h 76 % 0 in /  0.0 mm
02:20 57.2 °F /  14.0 °C 49.6 °F /  9.8 °C 30.1 in /  1017.8 hPa West 1 mph /  1.6 km/h 4 mph /  6.4 km/h 76 % 0 in /  0.0 mm
02:30 57.2 °F /  14.0 °C 49.6 °F /  9.8 °C 30.1 in /  1017.8 hPa WSW 2 mph /  3.2 km/h 3 mph /  4.8 km/h 76 % 0 in /  0.0 mm
02:40 57 °F /  13.9 °C 49.5 °F /  9.7 °C 30.1 in /  1017.8 hPa WSW 2 mph /  3.2 km/h 5 mph /  8.0 km/h 76 % 0 in /  0.0 mm
02:50 57 °F /  13.9 °C 49.3 °F /  9.6 °C 30.1 in /  1017.8 hPa West 1 mph /  1.6 km/h 3 mph /  4.8 km/h 75 % 0 in /  0.0 mm
03:00 57 °F /  13.9 °C 49.3 °F /  9.6 °C 30.1 in /  1017.8 hPa West 2 mph /  3.2 km/h 3 mph /  4.8 km/h 75 % 0 in /  0.0 mm
03:10 57 °F /  13.9 °C 49.5 °F /  9.7 °C 30.1 in /  1018.8 hPa Calm   3 mph /  4.8 km/h 76 % 0 in /  0.0 mm
03:20 57.6 °F /  14.2 °C 50 °F /  10.0 °C 30.1 in /  1018.8 hPa West 2 mph /  3.2 km/h 3 mph /  4.8 km/h 76 % 0 in /  0.0 mm
03:30 57.7 °F /  14.3 °C 50.2 °F /  10.1 °C 30.1 in /  1018.8 hPa Calm   3 mph /  4.8 km/h 76 % 0 in /  0.0 mm
03:40 57.9 °F /  14.4 °C 50.7 °F /  10.4 °C 30.1 in /  1019.9 hPa SW 1 mph /  1.6 km/h 2 mph /  3.2 km/h 77 % 0 in /  0.0 mm
03:50 57.9 °F /  14.4 °C 50.7 °F /  10.4 °C 30.1 in /  1019.9 hPa SW 1 mph /  1.6 km/h 3 mph /  4.8 km/h 77 % 0 in /  0.0 mm
04:00 58.3 °F /  14.6 °C 50.7 °F /  10.4 °C 30.1 in /  1019.9 hPa WSW 2 mph /  3.2 km/h 3 mph /  4.8 km/h 76 % 0 in /  0.0 mm
04:10 58.5 °F /  14.7 °C 50.9 °F /  10.5 °C 30.1 in /  1019.9 hPa WSW 1 mph /  1.6 km/h 2 mph /  3.2 km/h 76 % 0 in /  0.0 mm
04:20 59 °F /  15.0 °C 51.4 °F /  10.8 °C 30.2 in /  1020.9 hPa West 1 mph /  1.6 km/h 2 mph /  3.2 km/h 76 % 0 in /  0.0 mm
04:30 59.5 °F /  15.3 °C 52 °F /  11.1 °C 30.2 in /  1020.9 hPa NW 1 mph /  1.6 km/h 3 mph /  4.8 km/h 76 % 0 in /  0.0 mm
04:40 61.5 °F /  16.4 °C 53.4 °F /  11.9 °C 30.1 in /  1019.9 hPa North 1 mph /  1.6 km/h 3 mph /  4.8 km/h 75 % 0 in /  0.0 mm
04:50 62.2 °F /  16.8 °C 53.8 °F /  12.1 °C 30.1 in /  1019.9 hPa NNE 1 mph /  1.6 km/h 3 mph /  4.8 km/h 74 % 0 in /  0.0 mm
05:00 63.1 °F /  17.3 °C 54.3 °F /  12.4 °C 30.1 in /  1019.9 hPa ENE 1 mph /  1.6 km/h 4 mph /  6.4 km/h 73 % 0 in /  0.0 mm
05:10 63.1 °F /  17.3 °C 53.6 °F /  12.0 °C 30.1 in /  1019.9 hPa SSW 2 mph /  3.2 km/h 6 mph /  9.7 km/h 71 % 0 in /  0.0 mm
10:14 64.4 °F /  18.0 °C 54.3 °F /  12.4 °C 30.1 in /  1019.9 hPa SW 3.5 mph /  5.6 km/h 3.5 mph /  5.6 km/h 70 % 0 in /  0.0 mm
10:15 64.4 °F /  18.0 °C 54.3 °F /  12.4 °C 30.1 in /  1019.9 hPa WSW 3.5 mph /  5.6 km/h 3.5 mph /  5.6 km/h 70 % 0 in /  0.0 mm
10:20 65.5 °F /  18.6 °C 55 °F /  12.8 °C 30.1 in /  1019.9 hPa East 2.4 mph /  3.9 km/h 2.4 mph /  3.9 km/h 69 % 0 in /  0.0 mm
10:25 65.1 °F /  18.4 °C 54.3 °F /  12.4 °C 30.1 in /  1019.9 hPa ENE 4.6 mph /  7.4 km/h 4.6 mph /  7.4 km/h 68 % 0 in /  0.0 mm
10:30 65.3 °F /  18.5 °C 54.9 °F /  12.7 °C 30.1 in /  1019.9 hPa NNW 2.3 mph /  3.7 km/h 2.3 mph /  3.7 km/h 69 % 0 in /  0.0 mm
10:35 65.5 °F /  18.6 °C 54.7 °F /  12.6 °C 30.1 in /  1019.9 hPa NW 2.3 mph /  3.7 km/h 2.3 mph /  3.7 km/h 68 % 0 in /  0.0 mm
10:40 65.3 °F /  18.5 °C 53.6 °F /  12.0 °C 30.1 in /  1019.9 hPa NNE 3.5 mph /  5.6 km/h 3.5 mph /  5.6 km/h 66 % 0 in /  0.0 mm
10:45 65.7 °F /  18.7 °C 54.3 °F /  12.4 °C 30.1 in /  1019.9 hPa North 4.6 mph /  7.4 km/h 4.6 mph /  7.4 km/h 67 % 0 in /  0.0 mm
10:50 66.6 °F /  19.2 °C 54.9 °F /  12.7 °C 30.1 in /  1019.9 hPa ENE 3.5 mph /  5.6 km/h 3.5 mph /  5.6 km/h 66 % 0 in /  0.0 mm
10:55 66.6 °F /  19.2 °C 54.3 °F /  12.4 °C 30.1 in /  1019.9 hPa NNW 3.5 mph /  5.6 km/h 3.5 mph /  5.6 km/h 65 % 0 in /  0.0 mm
11:00 66.6 °F /  19.2 °C 54.9 °F /  12.7 °C 30.1 in /  1019.9 hPa SW 5.4 mph /  8.7 km/h 5.4 mph /  8.7 km/h 66 % 0 in /  0.0 mm
11:05 66.7 °F /  19.3 °C 54.7 °F /  12.6 °C 30.1 in /  1019.9 hPa SSW 1.2 mph /  1.9 km/h   65 % 0 in /  0.0 mm
11:10 67.5 °F /  19.7 °C 54.9 °F /  12.7 °C 30.1 in /  1019.9 hPa NE 2.4 mph /  3.9 km/h 2.4 mph /  3.9 km/h 64 % 0 in /  0.0 mm
11:15 67.6 °F /  19.8 °C 54.7 °F /  12.6 °C 30.1 in /  1019.9 hPa ESE 2.3 mph /  3.7 km/h 2.3 mph /  3.7 km/h 63 % 0 in /  0.0 mm
11:20 69.1 °F /  20.6 °C 55.9 °F /  13.3 °C 30.1 in /  1019.9 hPa NE 3.5 mph /  5.6 km/h 3.5 mph /  5.6 km/h 63 % 0 in /  0.0 mm
11:25 69.1 °F /  20.6 °C 55.6 °F /  13.1 °C 30.1 in /  1019.9 hPa ESE 2.3 mph /  3.7 km/h 2.3 mph /  3.7 km/h 62 % 0 in /  0.0 mm
11:30 70.5 °F /  21.4 °C 55.9 °F /  13.3 °C 30.1 in /  1019.9 hPa ESE 2.3 mph /  3.7 km/h 2.3 mph /  3.7 km/h 60 % 0 in /  0.0 mm
11:35 70.2 °F /  21.2 °C 55.6 °F /  13.1 °C 30.1 in /  1019.9 hPa West 3.5 mph /  5.6 km/h 3.5 mph /  5.6 km/h 60 % 0 in /  0.0 mm
11:40 70.2 °F /  21.2 °C 55.6 °F /  13.1 °C 30.1 in /  1019.9 hPa SW 3.5 mph /  5.6 km/h 3.5 mph /  5.6 km/h 60 % 0 in /  0.0 mm
11:45 71.1 °F /  21.7 °C 56.5 °F /  13.6 °C 30.1 in /  1018.8 hPa WSW 3.5 mph /  5.6 km/h 3.5 mph /  5.6 km/h 60 % 0 in /  0.0 mm
11:50 71.2 °F /  21.8 °C 56.1 °F /  13.4 °C 30.1 in /  1018.8 hPa NE 3.5 mph /  5.6 km/h 3.5 mph /  5.6 km/h 59 % 0 in /  0.0 mm
11:55 71.1 °F /  21.7 °C 55.6 °F /  13.1 °C 30.1 in /  1018.8 hPa NW 3.5 mph /  5.6 km/h 3.5 mph /  5.6 km/h 58 % 0 in /  0.0 mm
12:00 70.7 °F /  21.5 °C 55.2 °F /  12.9 °C 30.1 in /  1018.8 hPa ENE 4.6 mph /  7.4 km/h 4.6 mph /  7.4 km/h 58 % 0 in /  0.0 mm
12:05 70.3 °F /  21.3 °C 54.3 °F /  12.4 °C 30.1 in /  1018.8 hPa WNW 6.9 mph /  11.1 km/h 6.9 mph /  11.1 km/h 57 % 0 in /  0.0 mm
12:10 70.7 °F /  21.5 °C 54.7 °F /  12.6 °C 30.1 in /  1018.8 hPa NNE 6.2 mph /  10.0 km/h 6.2 mph /  10.0 km/h 57 % 0 in /  0.0 mm
12:15 70.3 °F /  21.3 °C 53.4 °F /  11.9 °C 30.1 in /  1018.8 hPa North 4 mph /  6.4 km/h 4 mph /  6.4 km/h 55 % 0 in /  0.0 mm
12:20 71.6 °F /  22.0 °C 54.7 °F /  12.6 °C 30.1 in /  1018.8 hPa SW 2.3 mph /  3.7 km/h 2.3 mph /  3.7 km/h 55 % 0 in /  0.0 mm
12:25 72.3 °F /  22.4 °C 55.2 °F /  12.9 °C 30.1 in /  1018.8 hPa East 1.4 mph /  2.3 km/h 1.4 mph /  2.3 km/h 55 % 0 in /  0.0 mm
12:30 72.9 °F /  22.7 °C 55.2 °F /  12.9 °C 30.1 in /  1018.8 hPa ENE 4.6 mph /  7.4 km/h 4.6 mph /  7.4 km/h 54 % 0 in /  0.0 mm
12:35 73.2 °F /  22.9 °C 55.6 °F /  13.1 °C 30.1 in /  1018.8 hPa East 2.4 mph /  3.9 km/h 2.4 mph /  3.9 km/h 54 % 0 in /  0.0 mm
12:40 73.8 °F /  23.2 °C 55.6 °F /  13.1 °C 30.1 in /  1018.8 hPa NW 3.8 mph /  6.1 km/h 3.8 mph /  6.1 km/h 53 % 0 in /  0.0 mm
12:45 73.8 °F /  23.2 °C 55.6 °F /  13.1 °C 30.1 in /  1018.8 hPa SSW 2.3 mph /  3.7 km/h 2.4 mph /  3.9 km/h 53 % 0 in /  0.0 mm
12:50 74.7 °F /  23.7 °C 55.9 °F /  13.3 °C 30.1 in /  1018.8 hPa SSW 4.7 mph /  7.6 km/h 4.7 mph /  7.6 km/h 52 % 0 in /  0.0 mm
12:55 74.7 °F /  23.7 °C 54.9 °F /  12.7 °C 30.1 in /  1018.8 hPa West 5.8 mph /  9.3 km/h 5.8 mph /  9.3 km/h 50 % 0 in /  0.0 mm
13:00 74.8 °F /  23.8 °C 54.3 °F /  12.4 °C 30.1 in /  1018.8 hPa West 2.3 mph /  3.7 km/h 2.9 mph /  4.7 km/h 49 % 0 in /  0.0 mm
13:05 75.9 °F /  24.4 °C 55.4 °F /  13.0 °C 30.1 in /  1018.8 hPa SW 6.2 mph /  10.0 km/h 6.2 mph /  10.0 km/h 49 % 0 in /  0.0 mm
13:10 75.7 °F /  24.3 °C 54.7 °F /  12.6 °C 30.1 in /  1018.8 hPa SW 5.8 mph /  9.3 km/h 5.8 mph /  9.3 km/h 48 % 0 in /  0.0 mm
13:15 76.6 °F /  24.8 °C 55.6 °F /  13.1 °C 30.1 in /  1018.8 hPa SW 5.6 mph /  9.0 km/h 5.6 mph /  9.0 km/h 48 % 0 in /  0.0 mm
13:20 77 °F /  25.0 °C 55.2 °F /  12.9 °C 30.1 in /  1018.8 hPa West 3.5 mph /  5.6 km/h 3.5 mph /  5.6 km/h 47 % 0 in /  0.0 mm
13:25 77 °F /  25.0 °C 54 °F /  12.2 °C 30.1 in /  1018.8 hPa WSW 3.5 mph /  5.6 km/h 3.5 mph /  5.6 km/h 45 % 0 in /  0.0 mm
13:30 77.4 °F /  25.2 °C 54.3 °F /  12.4 °C 30.1 in /  1018.8 hPa WNW 9.2 mph /  14.8 km/h 9.2 mph /  14.8 km/h 45 % 0 in /  0.0 mm
13:35 78.1 °F /  25.6 °C 55 °F /  12.8 °C 30.1 in /  1018.8 hPa West 4.6 mph /  7.4 km/h 4.6 mph /  7.4 km/h 45 % 0 in /  0.0 mm
13:40 77.9 °F /  25.5 °C 54.1 °F /  12.3 °C 30.1 in /  1018.8 hPa SW 8.1 mph /  13.0 km/h 8.1 mph /  13.0 km/h 44 % 0 in /  0.0 mm
13:45 78.6 °F /  25.9 °C 54.1 °F /  12.3 °C 30.1 in /  1017.8 hPa West 5.8 mph /  9.3 km/h 5.8 mph /  9.3 km/h 43 % 0 in /  0.0 mm
13:50 77.9 °F /  25.5 °C 52.3 °F /  11.3 °C 30.1 in /  1017.8 hPa WSW 6.9 mph /  11.1 km/h 6.9 mph /  11.1 km/h 41 % 0 in /  0.0 mm
13:55 78.1 °F /  25.6 °C 52.5 °F /  11.4 °C 30.1 in /  1017.8 hPa SSW 5.8 mph /  9.3 km/h 5.8 mph /  9.3 km/h 41 % 0 in /  0.0 mm
14:00 78.6 °F /  25.9 °C 52.3 °F /  11.3 °C 30.1 in /  1017.8 hPa South 5.8 mph /  9.3 km/h 5.8 mph /  9.3 km/h 40 % 0 in /  0.0 mm
14:05 78.4 °F /  25.8 °C 51.4 °F /  10.8 °C 30.1 in /  1017.8 hPa SE 5.8 mph /  9.3 km/h 5.8 mph /  9.3 km/h 39 % 0 in /  0.0 mm
14:10 78.3 °F /  25.7 °C 50.5 °F /  10.3 °C 30.1 in /  1017.8 hPa West 8.1 mph /  13.0 km/h 8.1 mph /  13.0 km/h 38 % 0 in /  0.0 mm
14:15 78.4 °F /  25.8 °C 50 °F /  10.0 °C 30.1 in /  1017.8 hPa SSW 5.8 mph /  9.3 km/h 5.8 mph /  9.3 km/h 37 % 0 in /  0.0 mm
14:20 78.8 °F /  26.0 °C 49.6 °F /  9.8 °C 30.1 in /  1017.8 hPa SSW 9.2 mph /  14.8 km/h 9.2 mph /  14.8 km/h 36 % 0 in /  0.0 mm
14:25 79.3 °F /  26.3 °C 50.7 °F /  10.4 °C 30.1 in /  1017.8 hPa WSW 4.9 mph /  7.9 km/h 4.9 mph /  7.9 km/h 37 % 0 in /  0.0 mm
14:30 79.2 °F /  26.2 °C 49.1 °F /  9.5 °C 30.1 in /  1017.8 hPa WSW 5.8 mph /  9.3 km/h 5.8 mph /  9.3 km/h 35 % 0 in /  0.0 mm
14:35 79.5 °F /  26.4 °C 49.5 °F /  9.7 °C 30.1 in /  1017.8 hPa WSW 5.8 mph /  9.3 km/h 5.8 mph /  9.3 km/h 35 % 0 in /  0.0 mm
14:40 78.6 °F /  25.9 °C 47.1 °F /  8.4 °C 30.1 in /  1017.8 hPa SW 10.4 mph /  16.7 km/h 10.4 mph /  16.7 km/h 33 % 0 in /  0.0 mm
14:45 79.3 °F /  26.3 °C 48.6 °F /  9.2 °C 30.1 in /  1017.8 hPa SW 4.6 mph /  7.4 km/h 4.6 mph /  7.4 km/h 34 % 0 in /  0.0 mm
14:50 79.5 °F /  26.4 °C 47.8 °F /  8.8 °C 30.1 in /  1017.8 hPa SW 3.5 mph /  5.6 km/h 3.5 mph /  5.6 km/h 33 % 0 in /  0.0 mm
14:55 79.5 °F /  26.4 °C 47.8 °F /  8.8 °C 30.1 in /  1017.8 hPa NNW 6.9 mph /  11.1 km/h 6.9 mph /  11.1 km/h 33 % 0 in /  0.0 mm
15:00 80.1 °F /  26.7 °C 49.3 °F /  9.6 °C 30.1 in /  1017.8 hPa West 6.9 mph /  11.1 km/h 6.9 mph /  11.1 km/h 34 % 0 in /  0.0 mm
15:05 80.6 °F /  27.0 °C 48.7 °F /  9.3 °C 30.1 in /  1017.8 hPa NNW 4.6 mph /  7.4 km/h 4.6 mph /  7.4 km/h 33 % 0 in /  0.0 mm
15:10 80.1 °F /  26.7 °C 48.4 °F /  9.1 °C 30.1 in /  1017.8 hPa SW 3.5 mph /  5.6 km/h 3.5 mph /  5.6 km/h 33 % 0 in /  0.0 mm
15:15 79.5 °F /  26.4 °C 48.7 °F /  9.3 °C 30.1 in /  1017.8 hPa WSW 6.9 mph /  11.1 km/h 6.9 mph /  11.1 km/h 34 % 0 in /  0.0 mm
15:20 80.6 °F /  27.0 °C 48.7 °F /  9.3 °C 30.1 in /  1017.8 hPa SSW 6 mph /  9.7 km/h 6 mph /  9.7 km/h 33 % 0 in /  0.0 mm
15:25 80.8 °F /  27.1 °C 48.2 °F /  9.0 °C 30.1 in /  1017.8 hPa NNW 3.5 mph /  5.6 km/h 3.5 mph /  5.6 km/h 32 % 0 in /  0.0 mm
15:30 81 °F /  27.2 °C 48.4 °F /  9.1 °C 30.1 in /  1017.8 hPa SE 3.1 mph /  5.0 km/h 3.1 mph /  5.0 km/h 32 % 0 in /  0.0 mm
15:35 81.7 °F /  27.6 °C 49.8 °F /  9.9 °C 30.1 in /  1017.8 hPa West 4.6 mph /  7.4 km/h 4.6 mph /  7.4 km/h 33 % 0 in /  0.0 mm
15:40 81.9 °F /  27.7 °C 49.1 °F /  9.5 °C 30.1 in /  1017.8 hPa SW 5.8 mph /  9.3 km/h 5.8 mph /  9.3 km/h 32 % 0 in /  0.0 mm
15:45 81.1 °F /  27.3 °C 48.6 °F /  9.2 °C 30 in /  1016.8 hPa WSW 4.6 mph /  7.4 km/h 4.6 mph /  7.4 km/h 32 % 0 in /  0.0 mm
15:50 81.9 °F /  27.7 °C 49.1 °F /  9.5 °C 30 in /  1016.8 hPa ENE 2.3 mph /  3.7 km/h 2.6 mph /  4.2 km/h 32 % 0 in /  0.0 mm
15:55 81.9 °F /  27.7 °C 49.1 °F /  9.5 °C 30 in /  1016.8 hPa SSW 7.4 mph /  11.9 km/h 7.4 mph /  11.9 km/h 32 % 0 in /  0.0 mm
16:00 82.6 °F /  28.1 °C 48 °F /  8.9 °C 30.1 in /  1017.8 hPa SW 6.9 mph /  11.1 km/h 6.9 mph /  11.1 km/h 30 % 0 in /  0.0 mm
16:05 82.2 °F /  27.9 °C 47.7 °F /  8.7 °C 30.1 in /  1017.8 hPa SW 4.6 mph /  7.4 km/h 4.6 mph /  7.4 km/h 30 % 0 in /  0.0 mm
16:10 82.4 °F /  28.0 °C 47.8 °F /  8.8 °C 30.1 in /  1017.8 hPa SW 5.8 mph /  9.3 km/h 5.8 mph /  9.3 km/h 30 % 0 in /  0.0 mm
16:15 82.8 °F /  28.2 °C 48.2 °F /  9.0 °C 30.1 in /  1017.8 hPa SW 5.8 mph /  9.3 km/h 5.8 mph /  9.3 km/h 30 % 0 in /  0.0 mm
16:20 83.3 °F /  28.5 °C 47.7 °F /  8.7 °C 30.1 in /  1017.8 hPa South 5.8 mph /  9.3 km/h 5.8 mph /  9.3 km/h 29 % 0 in /  0.0 mm
16:23 83.3 °F /  28.5 °C 48.6 °F /  9.2 °C 30.1 in /  1017.8 hPa SW 6.9 mph /  11.1 km/h 6.9 mph /  11.1 km/h 30 % 0 in /  0.0 mm
16:27 82.8 °F /  28.2 °C 47.3 °F /  8.5 °C 30.1 in /  1017.8 hPa NE 4.6 mph /  7.4 km/h 4.6 mph /  7.4 km/h 29 % 0 in /  0.0 mm
16:33 81.9 °F /  27.7 °C 46.6 °F /  8.1 °C 30.1 in /  1017.8 hPa SW 4.6 mph /  7.4 km/h 4.6 mph /  7.4 km/h 29 % 0 in /  0.0 mm
16:38 82.8 °F /  28.2 °C 47.3 °F /  8.5 °C 30.1 in /  1017.8 hPa West 4.6 mph /  7.4 km/h 4.6 mph /  7.4 km/h 29 % 0 in /  0.0 mm
16:43 83.1 °F /  28.4 °C 47.7 °F /  8.7 °C 30.1 in /  1017.8 hPa SW 4 mph /  6.4 km/h 4 mph /  6.4 km/h 29 % 0 in /  0.0 mm
16:47 82.9 °F /  28.3 °C 46.6 °F /  8.1 °C 30 in /  1016.8 hPa WSW 5.8 mph /  9.3 km/h 5.8 mph /  9.3 km/h 28 % 0 in /  0.0 mm
16:52 83.7 °F /  28.7 °C 48 °F /  8.9 °C 30 in /  1016.8 hPa West 4.6 mph /  7.4 km/h 4.6 mph /  7.4 km/h 29 % 0 in /  0.0 mm
16:57 83.7 °F /  28.7 °C 48 °F /  8.9 °C 30 in /  1016.8 hPa SW 3.5 mph /  5.6 km/h 3.5 mph /  5.6 km/h 29 % 0 in /  0.0 mm
17:02 83.7 °F /  28.7 °C 47.1 °F /  8.4 °C 30 in /  1016.8 hPa West 4.6 mph /  7.4 km/h 4.6 mph /  7.4 km/h 28 % 0 in /  0.0 mm
17:08 83.8 °F /  28.8 °C 47.1 °F /  8.4 °C 30 in /  1016.8 hPa WNW 4.6 mph /  7.4 km/h 4.6 mph /  7.4 km/h 28 % 0 in /  0.0 mm
17:13 83.7 °F /  28.7 °C 47.1 °F /  8.4 °C 30 in /  1016.8 hPa WSW 4.6 mph /  7.4 km/h 4.6 mph /  7.4 km/h 28 % 0 in /  0.0 mm
17:18 83.3 °F /  28.5 °C 46.8 °F /  8.2 °C 30 in /  1016.8 hPa SW 3.5 mph /  5.6 km/h 3.8 mph /  6.1 km/h 28 % 0 in /  0.0 mm
17:22 83.3 °F /  28.5 °C 46.8 °F /  8.2 °C 30 in /  1016.8 hPa West 8.1 mph /  13.0 km/h 8.1 mph /  13.0 km/h 28 % 0 in /  0.0 mm
17:27 83.7 °F /  28.7 °C 47.1 °F /  8.4 °C 30 in /  1016.8 hPa SW 3.5 mph /  5.6 km/h 3.5 mph /  5.6 km/h 28 % 0 in /  0.0 mm
17:32 84.4 °F /  29.1 °C 46.8 °F /  8.2 °C 30 in /  1015.8 hPa WSW 6.9 mph /  11.1 km/h 6.9 mph /  11.1 km/h 27 % 0 in /  0.0 mm
17:38 83.8 °F /  28.8 °C 46.2 °F /  7.9 °C 30 in /  1015.8 hPa West 5.8 mph /  9.3 km/h 5.8 mph /  9.3 km/h 27 % 0 in /  0.0 mm
17:43 84 °F /  28.9 °C 47.5 °F /  8.6 °C 30 in /  1015.8 hPa SW 6.2 mph /  10.0 km/h 6.2 mph /  10.0 km/h 28 % 0 in /  0.0 mm
17:48 83.3 °F /  28.5 °C 45.9 °F /  7.7 °C 30 in /  1015.8 hPa SSW 6.9 mph /  11.1 km/h 6.9 mph /  11.1 km/h 27 % 0 in /  0.0 mm
17:53 83.5 °F /  28.6 °C 46 °F /  7.8 °C 30 in /  1015.8 hPa South 5.8 mph /  9.3 km/h 5.8 mph /  9.3 km/h 27 % 0 in /  0.0 mm
17:58 82.2 °F /  27.9 °C 45.9 °F /  7.7 °C 30 in /  1015.8 hPa WSW 13.8 mph /  22.2 km/h 13.8 mph /  22.2 km/h 28 % 0 in /  0.0 mm
18:03 82 °F /  27.8 °C 47.5 °F /  8.6 °C 30 in /  1015.8 hPa SSW 4.6 mph /  7.4 km/h 4.6 mph /  7.4 km/h 30 % 0 in /  0.0 mm
18:08 82 °F /  27.8 °C 47.5 °F /  8.6 °C 30 in /  1015.8 hPa SSW 9.2 mph /  14.8 km/h 9.2 mph /  14.8 km/h 30 % 0 in /  0.0 mm
18:13 81.1 °F /  27.3 °C 47.7 °F /  8.7 °C 30 in /  1015.8 hPa SW 8.1 mph /  13.0 km/h 8.1 mph /  13.0 km/h 31 % 0 in /  0.0 mm
18:18 79.9 °F /  26.6 °C 46.6 °F /  8.1 °C 30 in /  1015.8 hPa SW 15 mph /  24.1 km/h 15 mph /  24.1 km/h 31 % 0 in /  0.0 mm
18:23 79.5 °F /  26.4 °C 47.1 °F /  8.4 °C 30 in /  1015.8 hPa SW 11.4 mph /  18.3 km/h 11.4 mph /  18.3 km/h 32 % 0 in /  0.0 mm
18:28 79 °F /  26.1 °C 46.6 °F /  8.1 °C 30 in /  1015.8 hPa South 10.4 mph /  16.7 km/h 10.4 mph /  16.7 km/h 32 % 0 in /  0.0 mm
18:33 78.8 °F /  26.0 °C 47.3 °F /  8.5 °C 30 in /  1015.8 hPa SSW 9.2 mph /  14.8 km/h 9.2 mph /  14.8 km/h 33 % 0 in /  0.0 mm
18:38 78.8 °F /  26.0 °C 48 °F /  8.9 °C 30 in /  1015.8 hPa SW 10.4 mph /  16.7 km/h 10.4 mph /  16.7 km/h 34 % 0 in /  0.0 mm
18:43 78.6 °F /  25.9 °C 47.8 °F /  8.8 °C 30 in /  1015.8 hPa SSW 9.2 mph /  14.8 km/h 9.2 mph /  14.8 km/h 34 % 0 in /  0.0 mm
18:48 78.3 °F /  25.7 °C 47.7 °F /  8.7 °C 30 in /  1015.8 hPa WSW 9.2 mph /  14.8 km/h 9.2 mph /  14.8 km/h 34 % 0 in /  0.0 mm
18:53 78.3 °F /  25.7 °C 48.4 °F /  9.1 °C 30 in /  1015.8 hPa SW 9.2 mph /  14.8 km/h 9.2 mph /  14.8 km/h 35 % 0 in /  0.0 mm
18:58 77.5 °F /  25.3 °C 47.7 °F /  8.7 °C 30 in /  1015.8 hPa SW 8.1 mph /  13.0 km/h 8.1 mph /  13.0 km/h 35 % 0 in /  0.0 mm
19:03 77.9 °F /  25.5 °C 48.7 °F /  9.3 °C 30 in /  1015.8 hPa SW 5.8 mph /  9.3 km/h 5.8 mph /  9.3 km/h 36 % 0 in /  0.0 mm
19:08 77.5 °F /  25.3 °C 48.6 °F /  9.2 °C 30 in /  1015.8 hPa SW 10.4 mph /  16.7 km/h 10.4 mph /  16.7 km/h 36 % 0 in /  0.0 mm
19:13 77.4 °F /  25.2 °C 48.4 °F /  9.1 °C 30 in /  1015.8 hPa SW 12.7 mph /  20.4 km/h 12.7 mph /  20.4 km/h 36 % 0 in /  0.0 mm
19:18 77.4 °F /  25.2 °C 48.4 °F /  9.1 °C 30 in /  1015.8 hPa SSW 9.2 mph /  14.8 km/h 9.2 mph /  14.8 km/h 36 % 0 in /  0.0 mm
19:23 77.2 °F /  25.1 °C 48.2 °F /  9.0 °C 30 in /  1015.8 hPa South 9.2 mph /  14.8 km/h 9.2 mph /  14.8 km/h 36 % 0 in /  0.0 mm
19:28 77.2 °F /  25.1 °C 48.2 °F /  9.0 °C 30 in /  1015.8 hPa SW 9.7 mph /  15.6 km/h 9.7 mph /  15.6 km/h 36 % 0 in /  0.0 mm
19:33 77.2 °F /  25.1 °C 48.9 °F /  9.4 °C 30 in /  1015.8 hPa SSW 8.1 mph /  13.0 km/h 8.1 mph /  13.0 km/h 37 % 0 in /  0.0 mm
19:38 76.8 °F /  24.9 °C 49.3 °F /  9.6 °C 30 in /  1015.8 hPa SW 9.2 mph /  14.8 km/h 9.2 mph /  14.8 km/h 38 % 0 in /  0.0 mm
19:43 76.5 °F /  24.7 °C 48.9 °F /  9.4 °C 30 in /  1015.8 hPa WSW 9.2 mph /  14.8 km/h 9.2 mph /  14.8 km/h 38 % 0 in /  0.0 mm
19:48 76.3 °F /  24.6 °C 48.7 °F /  9.3 °C 30 in /  1015.8 hPa West 12.3 mph /  19.8 km/h 12.3 mph /  19.8 km/h 38 % 0 in /  0.0 mm
19:53 76.1 °F /  24.5 °C 48.6 °F /  9.2 °C 30 in /  1015.8 hPa West 5.9 mph /  9.5 km/h 5.9 mph /  9.5 km/h 38 % 0 in /  0.0 mm
19:58 76.1 °F /  24.5 °C 49.3 °F /  9.6 °C 30 in /  1015.8 hPa SSW 5.8 mph /  9.3 km/h 5.8 mph /  9.3 km/h 39 % 0 in /  0.0 mm
20:03 75.9 °F /  24.4 °C 49.3 °F /  9.6 °C 30 in /  1015.8 hPa WSW 5.8 mph /  9.3 km/h 5.8 mph /  9.3 km/h 39 % 0 in /  0.0 mm
20:08 75.7 °F /  24.3 °C 49.6 °F /  9.8 °C 30 in /  1015.8 hPa WSW 8.5 mph /  13.7 km/h 8.5 mph /  13.7 km/h 40 % 0 in /  0.0 mm
20:13 75.6 °F /  24.2 °C 49.5 °F /  9.7 °C 30 in /  1015.8 hPa SW 4.6 mph /  7.4 km/h 4.6 mph /  7.4 km/h 40 % 0 in /  0.0 mm
20:18 75.2 °F /  24.0 °C 49.8 °F /  9.9 °C 30 in /  1015.8 hPa SW 5.8 mph /  9.3 km/h 5.8 mph /  9.3 km/h 41 % 0 in /  0.0 mm
20:23 75.2 °F /  24.0 °C 49.8 °F /  9.9 °C 30 in /  1015.8 hPa SW 5.6 mph /  9.0 km/h 5.6 mph /  9.0 km/h 41 % 0 in /  0.0 mm
20:28 75 °F /  23.9 °C 50.4 °F /  10.2 °C 30 in /  1015.8 hPa SSW 3.5 mph /  5.6 km/h 3.5 mph /  5.6 km/h 42 % 0 in /  0.0 mm
20:33 74.7 °F /  23.7 °C 50 °F /  10.0 °C 30 in /  1016.8 hPa SW 4.6 mph /  7.4 km/h 4.6 mph /  7.4 km/h 42 % 0 in /  0.0 mm
20:38 74.5 °F /  23.6 °C 50.5 °F /  10.3 °C 30 in /  1016.8 hPa SW 3.5 mph /  5.6 km/h 3.6 mph /  5.8 km/h 43 % 0 in /  0.0 mm
20:40 67.5 °F /  19.7 °C 47.1 °F /  8.4 °C 30.1 in /  1018.8 hPa WSW 3 mph /  4.8 km/h 3 mph /  4.8 km/h 48 % 0 in /  0.0 mm
20:43 74.5 °F /  23.6 °C 50.5 °F /  10.3 °C 30 in /  1016.8 hPa WSW 5.8 mph /  9.3 km/h 5.8 mph /  9.3 km/h 43 % 0 in /  0.0 mm
20:48 74.1 °F /  23.4 °C 50.7 °F /  10.4 °C 30 in /  1016.8 hPa SW 4.6 mph /  7.4 km/h 4.6 mph /  7.4 km/h 44 % 0 in /  0.0 mm
20:50 67.1 °F /  19.5 °C 46.8 °F /  8.2 °C 30.1 in /  1018.8 hPa WSW 2 mph /  3.2 km/h 5 mph /  8.0 km/h 48 % 0 in /  0.0 mm
20:53 73.9 °F /  23.3 °C 50.5 °F /  10.3 °C 30 in /  1016.8 hPa WNW 3.5 mph /  5.6 km/h 3.5 mph /  5.6 km/h 44 % 0 in /  0.0 mm
20:54 73.9 °F /  23.3 °C 50.5 °F /  10.3 °C 30 in /  1016.8 hPa WSW 2.3 mph /  3.7 km/h 2.3 mph /  3.7 km/h 44 % 0 in /  0.0 mm
20:59 73.8 °F /  23.2 °C 51.1 °F /  10.6 °C 30 in /  1016.8 hPa WSW 2.3 mph /  3.7 km/h 2.4 mph /  3.9 km/h 45 % 0 in /  0.0 mm
21:00 66.7 °F /  19.3 °C 45.9 °F /  7.7 °C 30.1 in /  1018.8 hPa West 1 mph /  1.6 km/h 3 mph /  4.8 km/h 47 % 0 in /  0.0 mm
21:04 73.6 °F /  23.1 °C 50.9 °F /  10.5 °C 30.1 in /  1017.8 hPa West 2.3 mph /  3.7 km/h 2.3 mph /  3.7 km/h 45 % 0 in /  0.0 mm
21:09 73.4 °F /  23.0 °C 51.4 °F /  10.8 °C 30.1 in /  1017.8 hPa West 1.6 mph /  2.6 km/h 1.6 mph /  2.6 km/h 46 % 0 in /  0.0 mm
21:10 66.4 °F /  19.1 °C 45.5 °F /  7.5 °C 30.1 in /  1018.8 hPa West 3 mph /  4.8 km/h 3 mph /  4.8 km/h 47 % 0 in /  0.0 mm
21:14 73.2 °F /  22.9 °C 51.8 °F /  11.0 °C 30.1 in /  1017.8 hPa West 1.2 mph /  1.9 km/h   47 % 0 in /  0.0 mm
21:19 73 °F /  22.8 °C 51.6 °F /  10.9 °C 30 in /  1016.8 hPa NNE 2.3 mph /  3.7 km/h 2.3 mph /  3.7 km/h 47 % 0 in /  0.0 mm
21:20 66 °F /  18.9 °C 45.9 °F /  7.7 °C 30.1 in /  1018.8 hPa WSW 2 mph /  3.2 km/h 3 mph /  4.8 km/h 48 % 0 in /  0.0 mm
21:24 72.7 °F /  22.6 °C 51.3 °F /  10.7 °C 30 in /  1016.8 hPa NNE 1.2 mph /  1.9 km/h 1.2 mph /  1.9 km/h 47 % 0 in /  0.0 mm
21:29 72.7 °F /  22.6 °C 51.3 °F /  10.7 °C 30.1 in /  1017.8 hPa NNE 1.6 mph /  2.6 km/h 1.6 mph /  2.6 km/h 47 % 0 in /  0.0 mm
21:30 65.5 °F /  18.6 °C 45.3 °F /  7.4 °C 30.1 in /  1018.8 hPa West 1 mph /  1.6 km/h 4 mph /  6.4 km/h 48 % 0 in /  0.0 mm
21:34 72.5 °F /  22.5 °C 51.1 °F /  10.6 °C 30.1 in /  1017.8 hPa NNE 3.5 mph /  5.6 km/h 3.5 mph /  5.6 km/h 47 % 0 in /  0.0 mm
21:39 72.3 °F /  22.4 °C 51.4 °F /  10.8 °C 30.1 in /  1017.8 hPa NNE 3.5 mph /  5.6 km/h 3.5 mph /  5.6 km/h 48 % 0 in /  0.0 mm
21:40 65.3 °F /  18.5 °C 45.1 °F /  7.3 °C 30.1 in /  1018.8 hPa West 2 mph /  3.2 km/h 3 mph /  4.8 km/h 48 % 0 in /  0.0 mm
21:44 72.3 °F /  22.4 °C 51.4 °F /  10.8 °C 30.1 in /  1017.8 hPa East 2.3 mph /  3.7 km/h 2.3 mph /  3.7 km/h 48 % 0 in /  0.0 mm
21:49 72.5 °F /  22.5 °C 51.6 °F /  10.9 °C 30.1 in /  1017.8 hPa WNW 2.3 mph /  3.7 km/h 2.3 mph /  3.7 km/h 48 % 0 in /  0.0 mm
21:50 65.1 °F /  18.4 °C 45 °F /  7.2 °C 30.1 in /  1018.8 hPa West 2 mph /  3.2 km/h 5 mph /  8.0 km/h 48 % 0 in /  0.0 mm
21:54 72.3 °F /  22.4 °C 51.4 °F /  10.8 °C 30.1 in /  1017.8 hPa ENE 1.2 mph /  1.9 km/h   48 % 0 in /  0.0 mm
21:59 72.1 °F /  22.3 °C 51.4 °F /  10.8 °C 30.1 in /  1017.8 hPa NNE 2.3 mph /  3.7 km/h 2.3 mph /  3.7 km/h 48 % 0 in /  0.0 mm
22:00 64.8 °F /  18.2 °C 44.6 °F /  7.0 °C 30.1 in /  1018.8 hPa West 2 mph /  3.2 km/h 3 mph /  4.8 km/h 48 % 0 in /  0.0 mm
22:04 72 °F /  22.2 °C 51.3 °F /  10.7 °C 30.1 in /  1017.8 hPa West 1.2 mph /  1.9 km/h   48 % 0 in /  0.0 mm
22:09 72 °F /  22.2 °C 51.8 °F /  11.0 °C 30.1 in /  1017.8 hPa ESE 3.5 mph /  5.6 km/h 3.5 mph /  5.6 km/h 49 % 0 in /  0.0 mm
22:10 64.4 °F /  18.0 °C 44.2 °F /  6.8 °C 30.1 in /  1018.8 hPa WSW 1 mph /  1.6 km/h 3 mph /  4.8 km/h 48 % 0 in /  0.0 mm
22:14 72.1 °F /  22.3 °C 51.4 °F /  10.8 °C 30.1 in /  1017.8 hPa Calm     48 % 0 in /  0.0 mm
22:19 72 °F /  22.2 °C 51.8 °F /  11.0 °C 30.1 in /  1017.8 hPa NNE 4.9 mph /  7.9 km/h 4.9 mph /  7.9 km/h 49 % 0 in /  0.0 mm
22:20 64 °F /  17.8 °C 43.9 °F /  6.6 °C 30.1 in /  1018.8 hPa West 1 mph /  1.6 km/h 2 mph /  3.2 km/h 48 % 0 in /  0.0 mm
22:24 72 °F /  22.2 °C 51.8 °F /  11.0 °C 30.1 in /  1017.8 hPa NE 2.4 mph /  3.9 km/h 2.4 mph /  3.9 km/h 49 % 0 in /  0.0 mm
22:29 71.8 °F /  22.1 °C 51.6 °F /  10.9 °C 30.1 in /  1017.8 hPa WSW 2.4 mph /  3.9 km/h 2.6 mph /  4.2 km/h 49 % 0 in /  0.0 mm
22:30 63.3 °F /  17.4 °C 43.9 °F /  6.6 °C 30.1 in /  1018.8 hPa West 1 mph /  1.6 km/h 2 mph /  3.2 km/h 49 % 0 in /  0.0 mm
22:34 71.6 °F /  22.0 °C 52 °F /  11.1 °C 30.1 in /  1017.8 hPa ENE 4 mph /  6.4 km/h 4 mph /  6.4 km/h 50 % 0 in /  0.0 mm
22:39 71.6 °F /  22.0 °C 51.4 °F /  10.8 °C 30.1 in /  1017.8 hPa ENE 2.4 mph /  3.9 km/h 2.4 mph /  3.9 km/h 49 % 0 in /  0.0 mm
22:40 62.6 °F /  17.0 °C 43.2 °F /  6.2 °C 30.1 in /  1018.8 hPa Calm   2 mph /  3.2 km/h 49 % 0 in /  0.0 mm
22:44 71.8 °F /  22.1 °C 52.2 °F /  11.2 °C 30.1 in /  1018.8 hPa ESE 2.9 mph /  4.7 km/h 2.9 mph /  4.7 km/h 50 % 0 in /  0.0 mm
22:50 71.8 °F /  22.1 °C 52.2 °F /  11.2 °C 30.1 in /  1018.8 hPa NW 3.5 mph /  5.6 km/h 3.5 mph /  5.6 km/h 50 % 0 in /  0.0 mm
22:55 71.8 °F /  22.1 °C 52.2 °F /  11.2 °C 30.1 in /  1018.8 hPa NE 5.8 mph /  9.3 km/h 5.8 mph /  9.3 km/h 50 % 0 in /  0.0 mm
23:00 71.8 °F /  22.1 °C 51.6 °F /  10.9 °C 30.1 in /  1018.8 hPa SE 3.1 mph /  5.0 km/h 3.1 mph /  5.0 km/h 49 % 0 in /  0.0 mm
23:05 71.8 °F /  22.1 °C 52.2 °F /  11.2 °C 30.1 in /  1018.8 hPa ENE 2.3 mph /  3.7 km/h 2.3 mph /  3.7 km/h 50 % 0 in /  0.0 mm
23:10 71.6 °F /  22.0 °C 52 °F /  11.1 °C 30.1 in /  1018.8 hPa ENE 2 mph /  3.2 km/h 2 mph /  3.2 km/h 50 % 0 in /  0.0 mm
23:15 71.4 °F /  21.9 °C 52.3 °F /  11.3 °C 30.1 in /  1018.8 hPa NE 2.3 mph /  3.7 km/h 2.3 mph /  3.7 km/h 51 % 0 in /  0.0 mm
23:20 71.2 °F /  21.8 °C 52.2 °F /  11.2 °C 30.1 in /  1018.8 hPa ESE 1.6 mph /  2.6 km/h 1.6 mph /  2.6 km/h 51 % 0 in /  0.0 mm
23:25 71.1 °F /  21.7 °C 52.5 °F /  11.4 °C 30.1 in /  1018.8 hPa ENE 3.5 mph /  5.6 km/h 3.5 mph /  5.6 km/h 52 % 0 in /  0.0 mm
23:30 70.9 °F /  21.6 °C 52.3 °F /  11.3 °C 30.1 in /  1018.8 hPa NE 2.3 mph /  3.7 km/h 2.3 mph /  3.7 km/h 52 % 0 in /  0.0 mm
23:35 70.9 °F /  21.6 °C 52.3 °F /  11.3 °C 30.1 in /  1018.8 hPa NNE 2.3 mph /  3.7 km/h 2.3 mph /  3.7 km/h 52 % 0 in /  0.0 mm
23:40 70.7 °F /  21.5 °C 52.7 °F /  11.5 °C 30.1 in /  1018.8 hPa Calm     53 % 0 in /  0.0 mm
23:45 70.7 °F /  21.5 °C 52.7 °F /  11.5 °C 30.1 in /  1018.8 hPa NW 1.6 mph /  2.6 km/h 1.6 mph /  2.6 km/h 53 % 0 in /  0.0 mm
23:50 70.7 °F /  21.5 °C 52.7 °F /  11.5 °C 30.1 in /  1018.8 hPa North 2.4 mph /  3.9 km/h 2.4 mph /  3.9 km/h 53 % 0 in /  0.0 mm
23:55 70.5 °F /  21.4 °C 51.4 °F /  10.8 °C 30.1 in /  1018.8 hPa ENE 1.2 mph /  1.9 km/h   51 % 0 in /  0.0 mm
Meteo Sesrovires
Elogis d' Weather Underground - 3.75 mb

Guio original per  Jim McMurry - jmcmurry@mwt.net Adaptat per a la plantilla per  Wim van der Kuil - Leuven-Template.eu

Trobareu la nostra informacio del temps tambe a:

Weather Underground

AWEKAS